createdAt,value
2019-01-27T00:01:44.159Z,2.83
2019-01-27T00:04:15.568Z,2.75
2019-01-27T00:06:46.781Z,2.74
2019-01-27T00:09:17.934Z,2.69
2019-01-27T00:11:49.276Z,2.69
2019-01-27T00:14:20.458Z,2.63
2019-01-27T00:16:51.612Z,2.68
2019-01-27T00:19:22.766Z,2.68
2019-01-27T00:21:55.218Z,2.62
2019-01-27T00:24:26.521Z,2.66
2019-01-27T00:26:57.719Z,2.82
2019-01-27T00:29:28.867Z,2.68
2019-01-27T00:32:00.107Z,2.70
2019-01-27T00:34:31.258Z,2.69
2019-01-27T00:37:02.501Z,2.75
2019-01-27T00:39:33.622Z,2.70
2019-01-27T00:42:05.087Z,2.57
2019-01-27T00:44:36.481Z,2.77
2019-01-27T00:47:07.925Z,2.89
2019-01-27T00:49:38.906Z,2.59
2019-01-27T00:52:11.035Z,2.50
2019-01-27T00:54:42.097Z,2.66
2019-01-27T00:57:13.166Z,2.57
2019-01-27T00:59:44.234Z,2.63
2019-01-27T01:02:15.630Z,2.51
2019-01-27T01:04:47.007Z,2.43
2019-01-27T01:07:18.214Z,2.60
2019-01-27T01:09:49.291Z,2.64
2019-01-27T01:12:20.426Z,2.61
2019-01-27T01:14:51.616Z,2.56
2019-01-27T01:17:22.946Z,2.68
2019-01-27T01:19:54.180Z,2.51
2019-01-27T01:22:25.336Z,2.56
2019-01-27T01:24:56.462Z,2.50
2019-01-27T01:27:27.603Z,2.56
2019-01-27T01:29:58.731Z,2.43
2019-01-27T01:32:29.877Z,2.50
2019-01-27T01:35:00.967Z,2.63
2019-01-27T01:37:32.123Z,2.87
2019-01-27T01:40:03.236Z,2.92
2019-01-27T01:42:34.284Z,2.85
2019-01-27T01:45:09.305Z,2.77
2019-01-27T01:47:40.507Z,2.66
2019-01-27T01:50:11.605Z,2.69
2019-01-27T01:52:42.919Z,2.66
2019-01-27T01:55:14.866Z,2.76
2019-01-27T01:57:45.993Z,2.66
2019-01-27T02:00:19.332Z,2.71
2019-01-27T02:02:50.466Z,2.72
2019-01-27T02:05:21.867Z,2.64
2019-01-27T02:07:52.920Z,2.53
2019-01-27T02:10:24.343Z,2.72
2019-01-27T02:12:55.558Z,2.65
2019-01-27T02:16:07.679Z,2.66
2019-01-27T02:18:39.849Z,2.52
2019-01-27T02:21:11.265Z,2.45
2019-01-27T02:23:42.338Z,2.52
2019-01-27T02:26:13.023Z,2.40
2019-01-27T02:28:44.347Z,2.37
2019-01-27T02:31:16.561Z,2.33
2019-01-27T02:33:47.710Z,2.45
2019-01-27T02:36:18.872Z,2.46
2019-01-27T02:38:49.932Z,2.29
2019-01-27T02:41:21.090Z,2.46
2019-01-27T02:43:52.143Z,2.65
2019-01-27T02:46:23.233Z,2.56
2019-01-27T02:48:54.301Z,2.44
2019-01-27T02:51:25.411Z,2.49
2019-01-27T02:53:56.489Z,2.41
2019-01-27T02:56:27.616Z,2.48
2019-01-27T02:58:58.680Z,2.48
2019-01-27T03:01:29.828Z,2.55
2019-01-27T03:04:01.047Z,2.51
2019-01-27T03:06:37.616Z,2.41
2019-01-27T03:09:13.829Z,2.53
2019-01-27T03:11:50.073Z,2.70
2019-01-27T03:14:21.907Z,2.77
2019-01-27T03:16:54.378Z,2.85
2019-01-27T03:19:25.514Z,2.70
2019-01-27T03:21:56.833Z,2.61
2019-01-27T03:24:27.989Z,2.62
2019-01-27T03:26:59.091Z,2.49
2019-01-27T03:29:30.161Z,2.65
2019-01-27T03:32:01.295Z,2.85
2019-01-27T03:34:32.450Z,2.68
2019-01-27T03:37:03.726Z,2.79
2019-01-27T03:39:34.846Z,2.71
2019-01-27T03:42:06.482Z,2.70
2019-01-27T03:44:37.608Z,2.69
2019-01-27T03:47:08.777Z,2.48
2019-01-27T03:49:39.925Z,2.50
2019-01-27T03:52:11.119Z,2.43
2019-01-27T03:54:42.277Z,2.52
2019-01-27T03:57:13.388Z,2.54
2019-01-27T03:59:44.534Z,2.54
2019-01-27T04:02:15.827Z,2.53
2019-01-27T04:04:46.962Z,2.34
2019-01-27T04:07:18.176Z,2.39
2019-01-27T04:09:49.207Z,2.50
2019-01-27T04:12:20.319Z,2.53
2019-01-27T04:14:51.470Z,2.57
2019-01-27T04:17:22.659Z,2.60
2019-01-27T04:19:53.753Z,2.58
2019-01-27T04:22:24.822Z,2.58
2019-01-27T04:24:56.146Z,2.66
2019-01-27T04:27:27.189Z,2.60
2019-01-27T04:29:58.371Z,2.70
2019-01-27T04:32:29.503Z,2.84
2019-01-27T04:35:00.582Z,2.77
2019-01-27T04:37:31.694Z,2.83
2019-01-27T04:40:02.802Z,2.62
2019-01-27T04:42:33.874Z,2.63
2019-01-27T04:45:06.643Z,2.62
2019-01-27T04:47:37.759Z,2.65
2019-01-27T04:50:11.585Z,2.66
2019-01-27T04:52:42.957Z,2.48
2019-01-27T04:55:14.804Z,2.53
2019-01-27T04:57:46.037Z,2.45
2019-01-27T05:00:20.117Z,2.35
2019-01-27T05:03:09.400Z,2.11
2019-01-27T05:05:40.910Z,2.23
2019-01-27T05:08:11.978Z,2.18
2019-01-27T05:10:43.052Z,2.06
2019-01-27T05:13:14.180Z,2.25
2019-01-27T05:15:45.233Z,2.24
2019-01-27T05:18:16.367Z,2.17
2019-01-27T05:20:47.427Z,2.09
2019-01-27T05:23:18.601Z,2.18
2019-01-27T05:25:49.619Z,2.23
2019-01-27T05:28:20.634Z,2.16
2019-01-27T05:30:51.710Z,2.35
2019-01-27T05:33:22.742Z,2.28
2019-01-27T05:35:53.809Z,2.25
2019-01-27T05:38:24.895Z,2.34
2019-01-27T05:40:56.835Z,2.35
2019-01-27T05:43:27.986Z,2.27
2019-01-27T05:45:59.146Z,2.38
2019-01-27T05:48:30.182Z,2.22
2019-01-27T05:51:01.213Z,2.33
2019-01-27T05:53:32.454Z,2.46
2019-01-27T05:56:03.599Z,2.66
2019-01-27T05:58:34.594Z,2.87
2019-01-27T06:01:05.804Z,2.86
2019-01-27T06:03:36.773Z,2.91
2019-01-27T06:06:07.907Z,2.91
2019-01-27T06:08:38.932Z,2.96
2019-01-27T06:11:10.080Z,2.93
2019-01-27T06:13:41.225Z,2.90
2019-01-27T06:16:12.271Z,2.89
2019-01-27T06:18:43.409Z,3.05
2019-01-27T06:21:14.474Z,3.22
2019-01-27T06:23:45.579Z,3.26
2019-01-27T06:26:16.733Z,3.14
2019-01-27T06:28:47.789Z,3.17
2019-01-27T06:31:18.933Z,3.17
2019-01-27T06:33:55.106Z,3.28
2019-01-27T06:36:26.341Z,3.27
2019-01-27T06:38:57.534Z,3.23
2019-01-27T06:41:28.640Z,3.09
2019-01-27T06:43:59.632Z,3.03
2019-01-27T06:46:30.800Z,3.07
2019-01-27T06:49:01.820Z,3.11
2019-01-27T06:51:32.990Z,2.96
2019-01-27T06:54:04.871Z,2.93
2019-01-27T06:56:36.025Z,2.92
2019-01-27T06:59:25.138Z,3.00
2019-01-27T07:02:06.601Z,3.13
2019-01-27T07:04:43.353Z,3.03
2019-01-27T07:07:45.727Z,3.04
2019-01-27T07:10:45.608Z,2.97
2019-01-27T07:13:41.680Z,3.07
2019-01-27T07:16:43.898Z,2.97
2019-01-27T07:19:35.387Z,2.93
2019-01-27T07:22:24.846Z,2.88
2019-01-27T07:25:16.266Z,2.86
2019-01-27T07:28:09.322Z,2.81
2019-01-27T07:31:11.913Z,2.89
2019-01-27T07:34:11.048Z,2.87
2019-01-27T07:37:13.630Z,2.77
2019-01-27T07:40:02.518Z,2.68
2019-01-27T07:43:02.485Z,2.67
2019-01-27T07:45:41.290Z,2.81
2019-01-27T07:48:49.582Z,2.87
2019-01-27T07:51:30.778Z,3.06
2019-01-27T07:54:19.408Z,2.97
2019-01-27T07:57:02.452Z,2.95
2019-01-27T07:59:52.533Z,2.88
2019-01-27T08:02:41.424Z,2.87
2019-01-27T08:05:30.299Z,2.79
2019-01-27T08:08:23.486Z,2.69
2019-01-27T08:11:05.214Z,2.77
2019-01-27T08:13:46.192Z,2.87
2019-01-27T08:16:25.219Z,2.93
2019-01-27T08:19:08.231Z,2.86
2019-01-27T08:22:01.148Z,2.95
2019-01-27T08:24:40.628Z,2.86
2019-01-27T08:27:39.782Z,2.80
2019-01-27T08:30:39.031Z,2.83
2019-01-27T08:33:32.222Z,2.93
2019-01-27T08:36:16.537Z,3.00
2019-01-27T08:39:21.942Z,3.30
2019-01-27T08:42:20.971Z,3.51
2019-01-27T08:45:12.315Z,3.82
2019-01-27T08:47:43.471Z,3.95
2019-01-27T08:50:17.099Z,4.09
2019-01-27T08:52:48.138Z,3.89
2019-01-27T08:55:19.488Z,3.97
2019-01-27T08:57:50.540Z,4.18
2019-01-27T09:00:36.667Z,4.02
2019-01-27T09:03:16.280Z,4.05
2019-01-27T09:06:12.196Z,4.17
2019-01-27T09:09:05.145Z,4.20
2019-01-27T09:12:07.604Z,3.96
2019-01-27T09:14:50.292Z,3.98
2019-01-27T09:17:43.458Z,4.01
2019-01-27T09:20:32.215Z,4.06
2019-01-27T09:23:25.543Z,4.05
2019-01-27T09:26:17.302Z,4.08
2019-01-27T09:29:00.116Z,4.26
2019-01-27T09:31:39.444Z,4.42
2019-01-27T09:34:44.763Z,4.31
2019-01-27T09:37:33.859Z,4.44
2019-01-27T09:40:24.663Z,4.67
2019-01-27T09:43:20.716Z,4.68
2019-01-27T09:46:22.903Z,4.68
2019-01-27T09:49:18.921Z,4.50
2019-01-27T09:51:59.559Z,4.75
2019-01-27T09:55:07.942Z,4.85
2019-01-27T09:57:56.929Z,5.01
2019-01-27T10:00:39.026Z,5.29
2019-01-27T10:03:38.141Z,5.41
2019-01-27T10:06:27.430Z,5.33
2019-01-27T10:09:15.025Z,4.93
2019-01-27T10:11:55.390Z,4.40
2019-01-27T10:14:57.797Z,4.45
2019-01-27T10:17:46.325Z,4.98
2019-01-27T10:20:39.624Z,4.91
2019-01-27T10:23:22.995Z,4.85
2019-01-27T10:26:02.063Z,4.98
2019-01-27T10:28:45.884Z,5.36
2019-01-27T10:31:35.022Z,5.12
2019-01-27T10:34:21.744Z,5.16
2019-01-27T10:37:12.236Z,5.19
2019-01-27T10:39:56.814Z,5.89
2019-01-27T10:42:34.775Z,5.61
2019-01-27T10:45:22.244Z,5.84
2019-01-27T10:48:09.766Z,6.32
2019-01-27T10:50:48.806Z,5.74
2019-01-27T10:53:34.844Z,5.83
2019-01-27T10:56:21.890Z,6.53
2019-01-27T10:59:00.422Z,6.58
2019-01-27T11:01:52.435Z,6.68
2019-01-27T11:04:48.992Z,6.20
2019-01-27T11:07:57.151Z,6.36
2019-01-27T11:10:47.463Z,6.37
2019-01-27T11:13:40.456Z,6.49
2019-01-27T11:16:31.907Z,6.65
2019-01-27T11:19:10.977Z,7.00
2019-01-27T11:22:01.131Z,6.50
2019-01-27T11:24:57.537Z,6.25
2019-01-27T11:27:53.513Z,6.67
2019-01-27T11:30:42.479Z,6.55
2019-01-27T11:33:25.734Z,6.92
2019-01-27T11:36:14.993Z,6.79
2019-01-27T11:39:23.742Z,6.65
2019-01-27T11:42:19.780Z,7.08
2019-01-27T11:44:52.218Z,7.12
2019-01-27T11:47:38.924Z,6.18
2019-01-27T11:50:18.163Z,6.19
2019-01-27T11:53:08.679Z,6.15
2019-01-27T11:55:39.756Z,6.43
2019-01-27T11:58:10.922Z,6.29
2019-01-27T12:00:46.215Z,6.50
2019-01-27T12:03:17.461Z,6.66
2019-01-27T12:05:48.724Z,6.42
2019-01-27T12:08:19.707Z,6.63
2019-01-27T12:10:50.698Z,6.78
2019-01-27T12:13:21.748Z,6.91
2019-01-27T12:15:52.906Z,6.57
2019-01-27T12:18:24.067Z,6.86
2019-01-27T12:20:55.698Z,7.02
2019-01-27T12:23:26.824Z,7.12
2019-01-27T12:25:57.905Z,6.95
2019-01-27T12:28:29.039Z,6.74
2019-01-27T12:31:00.169Z,7.07
2019-01-27T12:33:31.310Z,6.92
2019-01-27T12:36:02.454Z,6.82
2019-01-27T12:38:33.602Z,6.55
2019-01-27T12:41:04.828Z,6.75
2019-01-27T12:43:35.901Z,6.63
2019-01-27T12:46:07.041Z,6.72
2019-01-27T12:48:38.182Z,6.59
2019-01-27T12:51:09.237Z,6.86
2019-01-27T12:53:40.349Z,6.57
2019-01-27T12:56:11.485Z,6.79
2019-01-27T12:58:42.462Z,6.78
2019-01-27T13:01:14.076Z,6.69
2019-01-27T13:03:46.938Z,6.63
2019-01-27T13:06:18.036Z,6.66
2019-01-27T13:08:49.111Z,6.58
2019-01-27T13:11:20.248Z,6.73
2019-01-27T13:13:51.233Z,6.69
2019-01-27T13:16:23.076Z,6.81
2019-01-27T13:18:54.141Z,6.88
2019-01-27T13:21:25.286Z,6.97
2019-01-27T13:23:56.433Z,6.79
2019-01-27T13:26:27.852Z,6.91
2019-01-27T13:28:59.010Z,7.19
2019-01-27T13:31:31.311Z,7.28
2019-01-27T13:34:02.544Z,7.43
2019-01-27T13:36:35.371Z,7.52
2019-01-27T13:39:08.748Z,7.52
2019-01-27T13:41:39.875Z,7.56
2019-01-27T13:44:11.106Z,7.28
2019-01-27T13:46:42.152Z,7.04
2019-01-27T13:49:13.291Z,7.14
2019-01-27T13:51:44.425Z,6.98
2019-01-27T13:54:15.531Z,7.06
2019-01-27T13:56:46.665Z,7.26
2019-01-27T13:59:19.263Z,7.07
2019-01-27T14:01:50.291Z,7.06
2019-01-27T14:04:21.807Z,7.02
2019-01-27T14:06:53.138Z,7.39
2019-01-27T14:09:24.296Z,7.88
2019-01-27T14:11:55.440Z,7.40
2019-01-27T14:14:26.558Z,7.33
2019-01-27T14:16:58.434Z,7.32
2019-01-27T14:19:29.642Z,6.94
2019-01-27T14:22:00.743Z,7.26
2019-01-27T14:24:31.843Z,7.18
2019-01-27T14:27:02.895Z,7.13
2019-01-27T14:29:34.165Z,6.99
2019-01-27T14:32:05.508Z,6.90
2019-01-27T14:34:36.543Z,7.15
2019-01-27T14:37:07.722Z,6.61
2019-01-27T14:39:38.730Z,6.50
2019-01-27T14:42:09.879Z,6.51
2019-01-27T14:44:40.961Z,6.39
2019-01-27T14:47:12.141Z,6.29
2019-01-27T14:49:43.188Z,6.10
2019-01-27T14:52:14.334Z,5.99
2019-01-27T14:54:45.378Z,5.91
2019-01-27T14:57:16.630Z,5.82
2019-01-27T14:59:47.686Z,5.82
2019-01-27T15:02:18.924Z,5.81
2019-01-27T15:04:49.995Z,5.80
2019-01-27T15:07:21.164Z,5.85
2019-01-27T15:09:52.157Z,5.87
2019-01-27T15:12:23.514Z,5.79
2019-01-27T15:14:54.580Z,5.69
2019-01-27T15:17:26.511Z,5.66
2019-01-27T15:19:57.662Z,5.78
2019-01-27T15:22:28.813Z,5.85
2019-01-27T15:24:59.890Z,5.77
2019-01-27T15:27:31.096Z,5.80
2019-01-27T15:30:02.327Z,5.76
2019-01-27T15:32:33.685Z,5.79
2019-01-27T15:35:05.308Z,5.79
2019-01-27T15:37:36.493Z,5.75
2019-01-27T15:40:08.791Z,5.75
2019-01-27T15:42:41.180Z,5.76
2019-01-27T15:45:15.198Z,5.79
2019-01-27T15:47:48.449Z,5.66
2019-01-27T15:50:21.560Z,5.71
2019-01-27T15:52:52.836Z,5.72
2019-01-27T15:55:23.962Z,5.81
2019-01-27T15:57:55.100Z,5.74
2019-01-27T16:00:28.420Z,5.82
2019-01-27T16:03:00.062Z,5.80
2019-01-27T16:05:31.355Z,5.76
2019-01-27T16:08:02.635Z,5.76
2019-01-27T16:10:33.770Z,5.72
2019-01-27T16:13:05.223Z,5.70
2019-01-27T16:15:36.379Z,5.80
2019-01-27T16:18:07.726Z,5.90
2019-01-27T16:20:39.115Z,5.73
2019-01-27T16:23:29.266Z,5.60
2019-01-27T16:26:01.485Z,5.94
2019-01-27T16:28:32.635Z,5.76
2019-01-27T16:31:28.997Z,5.87
2019-01-27T16:34:22.508Z,5.94
2019-01-27T16:36:53.720Z,5.79
2019-01-27T16:39:25.047Z,5.70
2019-01-27T16:41:56.107Z,5.80
2019-01-27T16:44:27.376Z,5.61
2019-01-27T16:46:58.396Z,5.78
2019-01-27T16:49:29.577Z,5.65
2019-01-27T16:52:00.728Z,5.73
2019-01-27T16:54:32.328Z,5.71
2019-01-27T16:57:03.527Z,5.67
2019-01-27T16:59:34.537Z,5.65
2019-01-27T17:02:05.889Z,5.61
2019-01-27T17:04:36.955Z,5.64
2019-01-27T17:07:08.008Z,5.66
2019-01-27T17:09:39.161Z,5.71
2019-01-27T17:12:10.561Z,5.61
2019-01-27T17:14:41.690Z,5.60
2019-01-27T17:17:12.906Z,5.67
2019-01-27T17:19:44.527Z,5.56
2019-01-27T17:22:15.752Z,5.54
2019-01-27T17:24:47.787Z,5.44
2019-01-27T17:27:18.845Z,5.51
2019-01-27T17:29:49.885Z,5.59
2019-01-27T17:32:20.992Z,5.67
2019-01-27T17:34:51.988Z,5.56
2019-01-27T17:37:23.149Z,5.43
2019-01-27T17:39:54.279Z,5.56
2019-01-27T17:42:25.507Z,5.63
2019-01-27T17:44:56.663Z,5.49
2019-01-27T17:47:27.735Z,5.60
2019-01-27T17:49:58.806Z,5.51
2019-01-27T17:52:29.858Z,5.50
2019-01-27T17:55:01.494Z,5.60
2019-01-27T17:58:03.611Z,5.55
2019-01-27T18:00:56.327Z,5.51
2019-01-27T18:03:39.558Z,5.54
2019-01-27T18:06:19.260Z,5.58
2019-01-27T18:09:09.951Z,5.69
2019-01-27T18:11:45.315Z,5.63
2019-01-27T18:14:23.411Z,5.56
2019-01-27T18:16:55.716Z,5.59
2019-01-27T18:19:26.775Z,5.70
2019-01-27T18:21:58.183Z,5.74
2019-01-27T18:24:29.350Z,5.65
2019-01-27T18:27:00.595Z,5.62
2019-01-27T18:29:31.734Z,5.72
2019-01-27T18:32:02.994Z,5.74
2019-01-27T18:34:34.025Z,5.83
2019-01-27T18:37:06.241Z,5.79
2019-01-27T18:39:37.331Z,5.74
2019-01-27T18:42:08.691Z,5.65
2019-01-27T18:44:39.837Z,5.46
2019-01-27T18:47:10.986Z,5.36
2019-01-27T18:49:42.007Z,5.45
2019-01-27T18:52:13.130Z,5.52
2019-01-27T18:55:03.198Z,5.47
2019-01-27T18:57:48.176Z,5.53
2019-01-27T19:00:38.295Z,5.57
2019-01-27T19:03:14.122Z,5.60
2019-01-27T19:05:59.488Z,5.59
2019-01-27T19:08:39.342Z,5.48
2019-01-27T19:11:30.212Z,5.51
2019-01-27T19:14:38.790Z,5.45
2019-01-27T19:17:19.315Z,5.31
2019-01-27T19:19:58.271Z,5.40
2019-01-27T19:22:51.005Z,5.37
2019-01-27T19:25:44.184Z,5.45
2019-01-27T19:28:49.285Z,5.44
2019-01-27T19:31:26.696Z,5.32
2019-01-27T19:34:22.472Z,5.24
2019-01-27T19:37:04.948Z,5.18
2019-01-27T19:39:56.094Z,5.28
2019-01-27T19:42:53.090Z,5.31
2019-01-27T19:45:49.252Z,5.26
2019-01-27T19:48:29.919Z,5.17
2019-01-27T19:51:14.535Z,5.32
2019-01-27T19:54:12.640Z,5.17
2019-01-27T19:56:56.750Z,5.22
2019-01-27T19:59:45.640Z,5.20
2019-01-27T20:02:35.623Z,5.13
2019-01-27T20:05:26.107Z,5.41
2019-01-27T20:08:28.255Z,5.19
2019-01-27T20:11:18.310Z,5.11
2019-01-27T20:14:08.445Z,4.94
2019-01-27T20:16:59.977Z,5.03
2019-01-27T20:19:48.221Z,5.01
2019-01-27T20:22:30.831Z,4.85
2019-01-27T20:25:09.430Z,4.89
2019-01-27T20:28:08.706Z,4.97
2019-01-27T20:31:01.653Z,4.96
2019-01-27T20:33:50.659Z,5.04
2019-01-27T20:36:40.796Z,4.96
2019-01-27T20:39:33.814Z,4.84
2019-01-27T20:42:30.535Z,4.59
2019-01-27T20:45:19.306Z,4.63
2019-01-27T20:48:01.200Z,4.60
2019-01-27T20:50:44.529Z,3.94
2019-01-27T20:53:26.384Z,3.47
2019-01-27T20:56:05.257Z,3.43
2019-01-27T20:58:57.166Z,3.34
2019-01-27T21:01:50.177Z,3.34
2019-01-27T21:04:30.074Z,3.42
2019-01-27T21:07:22.200Z,3.40
2019-01-27T21:10:18.139Z,3.41
2019-01-27T21:13:15.200Z,3.40
2019-01-27T21:15:51.858Z,3.62
2019-01-27T21:18:27.732Z,3.62
2019-01-27T21:20:58.799Z,3.66
2019-01-27T21:23:31.599Z,3.70
2019-01-27T21:26:02.728Z,3.71
2019-01-27T21:28:33.857Z,3.53
2019-01-27T21:31:06.547Z,3.52
2019-01-27T21:33:39.153Z,3.67
2019-01-27T21:36:10.377Z,3.31
2019-01-27T21:38:41.489Z,3.42
2019-01-27T21:41:12.631Z,3.52
2019-01-27T21:43:43.737Z,3.30
2019-01-27T21:46:14.867Z,3.30
2019-01-27T21:48:46.062Z,3.30
2019-01-27T21:51:17.217Z,3.49
2019-01-27T21:53:48.242Z,3.53
2019-01-27T21:56:19.382Z,3.43
2019-01-27T21:58:50.455Z,3.57
2019-01-27T22:01:25.478Z,3.57
2019-01-27T22:03:54.638Z,3.71
2019-01-27T22:06:28.459Z,3.56
2019-01-27T22:08:59.537Z,3.45
2019-01-27T22:11:30.839Z,3.47
2019-01-27T22:14:01.891Z,3.46
2019-01-27T22:16:32.931Z,3.55
2019-01-27T22:19:04.021Z,3.58
2019-01-27T22:21:35.145Z,3.58
2019-01-27T22:24:06.217Z,3.64
2019-01-27T22:26:37.355Z,3.67
2019-01-27T22:29:08.520Z,3.70
2019-01-27T22:31:39.642Z,3.62
2019-01-27T22:34:10.795Z,3.76
2019-01-27T22:36:41.915Z,3.76
2019-01-27T22:39:13.088Z,3.88
2019-01-27T22:41:44.300Z,3.90
2019-01-27T22:44:15.320Z,4.09
2019-01-27T22:46:46.765Z,3.90
2019-01-27T22:49:17.840Z,4.01
2019-01-27T22:51:48.899Z,3.99
2019-01-27T22:54:20.047Z,4.06
2019-01-27T22:56:51.109Z,3.98
2019-01-27T22:59:22.297Z,3.94
2019-01-27T23:01:53.536Z,4.01
2019-01-27T23:04:24.691Z,3.97
2019-01-27T23:06:56.414Z,3.93
2019-01-27T23:09:30.034Z,3.99
2019-01-27T23:12:01.759Z,3.91
2019-01-27T23:14:32.890Z,3.89
2019-01-27T23:17:04.145Z,3.88
2019-01-27T23:19:35.379Z,3.93
2019-01-27T23:22:06.490Z,3.88
2019-01-27T23:24:37.786Z,3.84
2019-01-27T23:27:08.917Z,3.80
2019-01-27T23:29:40.184Z,3.74
2019-01-27T23:32:11.459Z,3.91
2019-01-27T23:34:42.573Z,4.23
2019-01-27T23:37:13.805Z,4.02
2019-01-27T23:39:44.816Z,3.95
2019-01-27T23:42:15.982Z,3.98
2019-01-27T23:44:46.976Z,3.92
2019-01-27T23:47:18.214Z,3.76
2019-01-27T23:49:49.350Z,3.62
2019-01-27T23:52:20.485Z,3.59
2019-01-27T23:54:51.684Z,3.58
2019-01-27T23:57:22.729Z,3.64
2019-01-27T23:59:53.958Z,3.57
